sensor_id;sensor_type;location;lat;lon;timestamp;temperature;humidity
16392;DHT22;8305;-33.882;151.134;2022-07-10T00:01:54;12.80;99.90
16392;DHT22;8305;-33.882;151.134;2022-07-10T00:04:25;12.90;99.90
16392;DHT22;8305;-33.882;151.134;2022-07-10T00:06:57;12.90;99.90
16392;DHT22;8305;-33.882;151.134;2022-07-10T00:09:29;12.90;99.90
16392;DHT22;8305;-33.882;151.134;2022-07-10T00:12:00;12.90;99.90
16392;DHT22;8305;-33.882;151.134;2022-07-10T00:14:31;12.80;99.90
16392;DHT22;8305;-33.882;151.134;2022-07-10T00:17:02;12.80;99.90
16392;DHT22;8305;-33.882;151.134;2022-07-10T00:19:36;12.70;99.90
16392;DHT22;8305;-33.882;151.134;2022-07-10T00:22:08;12.60;99.90
16392;DHT22;8305;-33.882;151.134;2022-07-10T00:24:39;12.60;99.90
16392;DHT22;8305;-33.882;151.134;2022-07-10T00:27:09;12.60;99.90
16392;DHT22;8305;-33.882;151.134;2022-07-10T00:29:40;12.70;99.90
16392;DHT22;8305;-33.882;151.134;2022-07-10T00:32:11;12.50;99.90
16392;DHT22;8305;-33.882;151.134;2022-07-10T00:34:42;12.50;99.90
16392;DHT22;8305;-33.882;151.134;2022-07-10T00:37:14;12.50;99.90
16392;DHT22;8305;-33.882;151.134;2022-07-10T00:39:45;12.60;99.90
16392;DHT22;8305;-33.882;151.134;2022-07-10T00:42:16;12.70;99.90
16392;DHT22;8305;-33.882;151.134;2022-07-10T00:44:47;12.80;99.90
16392;DHT22;8305;-33.882;151.134;2022-07-10T00:47:21;12.80;99.90
16392;DHT22;8305;-33.882;151.134;2022-07-10T00:49:52;12.80;99.90
16392;DHT22;8305;-33.882;151.134;2022-07-10T00:52:25;12.90;99.90
16392;DHT22;8305;-33.882;151.134;2022-07-10T00:54:56;12.90;99.90
16392;DHT22;8305;-33.882;151.134;2022-07-10T00:57:27;12.90;99.90
16392;DHT22;8305;-33.882;151.134;2022-07-10T00:59:58;13.00;99.90
16392;DHT22;8305;-33.882;151.134;2022-07-10T01:02:28;13.00;99.90
16392;DHT22;8305;-33.882;151.134;2022-07-10T01:04:59;13.10;99.90
16392;DHT22;8305;-33.882;151.134;2022-07-10T01:07:32;13.10;99.90
16392;DHT22;8305;-33.882;151.134;2022-07-10T01:10:02;13.00;99.90
16392;DHT22;8305;-33.882;151.134;2022-07-10T01:12:33;12.90;99.90
16392;DHT22;8305;-33.882;151.134;2022-07-10T01:15:05;12.90;99.90
16392;DHT22;8305;-33.882;151.134;2022-07-10T01:17:36;13.00;99.90
16392;DHT22;8305;-33.882;151.134;2022-07-10T01:20:08;13.10;99.90
16392;DHT22;8305;-33.882;151.134;2022-07-10T01:22:41;13.20;99.90
16392;DHT22;8305;-33.882;151.134;2022-07-10T01:25:12;13.20;99.90
16392;DHT22;8305;-33.882;151.134;2022-07-10T01:27:42;13.20;99.90
16392;DHT22;8305;-33.882;151.134;2022-07-10T01:30:13;13.20;99.90
16392;DHT22;8305;-33.882;151.134;2022-07-10T01:32:43;13.30;99.90
16392;DHT22;8305;-33.882;151.134;2022-07-10T01:35:14;13.30;99.90
16392;DHT22;8305;-33.882;151.134;2022-07-10T01:37:47;13.50;99.90
16392;DHT22;8305;-33.882;151.134;2022-07-10T01:40:19;13.60;99.90
16392;DHT22;8305;-33.882;151.134;2022-07-10T01:42:50;13.70;99.90
16392;DHT22;8305;-33.882;151.134;2022-07-10T01:45:21;13.80;99.90
16392;DHT22;8305;-33.882;151.134;2022-07-10T01:47:51;13.80;99.90
16392;DHT22;8305;-33.882;151.134;2022-07-10T01:50:22;13.90;99.90
16392;DHT22;8305;-33.882;151.134;2022-07-10T01:52:55;13.90;99.90
16392;DHT22;8305;-33.882;151.134;2022-07-10T01:55:26;13.70;99.90
16392;DHT22;8305;-33.882;151.134;2022-07-10T01:57:57;13.50;99.90
16392;DHT22;8305;-33.882;151.134;2022-07-10T02:00:27;13.40;99.90
16392;DHT22;8305;-33.882;151.134;2022-07-10T02:02:58;13.40;99.90
16392;DHT22;8305;-33.882;151.134;2022-07-10T02:05:44;13.20;99.90
16392;DHT22;8305;-33.882;151.134;2022-07-10T02:08:17;13.20;99.90
16392;DHT22;8305;-33.882;151.134;2022-07-10T02:10:48;13.20;99.90
16392;DHT22;8305;-33.882;151.134;2022-07-10T02:13:18;13.40;99.90
16392;DHT22;8305;-33.882;151.134;2022-07-10T02:15:49;13.70;99.90
16392;DHT22;8305;-33.882;151.134;2022-07-10T02:18:20;13.90;99.90
16392;DHT22;8305;-33.882;151.134;2022-07-10T02:20:52;14.20;99.90
16392;DHT22;8305;-33.882;151.134;2022-07-10T02:23:24;14.50;99.90
16392;DHT22;8305;-33.882;151.134;2022-07-10T02:25:56;14.60;99.90
16392;DHT22;8305;-33.882;151.134;2022-07-10T02:28:26;14.70;99.90
16392;DHT22;8305;-33.882;151.134;2022-07-10T02:30:57;14.70;99.90
16392;DHT22;8305;-33.882;151.134;2022-07-10T02:33:28;14.60;99.90
16392;DHT22;8305;-33.882;151.134;2022-07-10T02:35:58;14.50;99.90
16392;DHT22;8305;-33.882;151.134;2022-07-10T02:38:31;14.60;99.90
16392;DHT22;8305;-33.882;151.134;2022-07-10T02:41:02;14.60;99.90
16392;DHT22;8305;-33.882;151.134;2022-07-10T02:43:32;14.70;99.90
16392;DHT22;8305;-33.882;151.134;2022-07-10T02:46:03;14.70;99.90
16392;DHT22;8305;-33.882;151.134;2022-07-10T02:48:34;14.70;99.90
16392;DHT22;8305;-33.882;151.134;2022-07-10T02:51:05;14.70;99.90
16392;DHT22;8305;-33.882;151.134;2022-07-10T02:53:37;14.60;99.90
16392;DHT22;8305;-33.882;151.134;2022-07-10T02:56:08;14.60;99.90
16392;DHT22;8305;-33.882;151.134;2022-07-10T02:58:39;14.60;99.90
16392;DHT22;8305;-33.882;151.134;2022-07-10T03:01:10;14.60;99.90
16392;DHT22;8305;-33.882;151.134;2022-07-10T03:03:41;14.50;99.90
16392;DHT22;8305;-33.882;151.134;2022-07-10T03:06:11;14.50;99.90
16392;DHT22;8305;-33.882;151.134;2022-07-10T03:08:44;14.60;99.90
16392;DHT22;8305;-33.882;151.134;2022-07-10T03:11:14;14.60;99.90
16392;DHT22;8305;-33.882;151.134;2022-07-10T03:13:45;14.60;99.90
16392;DHT22;8305;-33.882;151.134;2022-07-10T03:16:16;14.60;99.90
16392;DHT22;8305;-33.882;151.134;2022-07-10T03:18:46;14.70;99.90
16392;DHT22;8305;-33.882;151.134;2022-07-10T03:21:17;15.00;99.90
16392;DHT22;8305;-33.882;151.134;2022-07-10T03:23:49;15.00;99.90
16392;DHT22;8305;-33.882;151.134;2022-07-10T03:26:20;14.90;99.90
16392;DHT22;8305;-33.882;151.134;2022-07-10T03:28:51;14.70;99.90
16392;DHT22;8305;-33.882;151.134;2022-07-10T03:31:22;14.50;99.90
16392;DHT22;8305;-33.882;151.134;2022-07-10T03:33:52;14.40;99.90
16392;DHT22;8305;-33.882;151.134;2022-07-10T03:36:23;14.40;99.90
16392;DHT22;8305;-33.882;151.134;2022-07-10T03:38:56;14.40;99.90
16392;DHT22;8305;-33.882;151.134;2022-07-10T03:41:27;14.40;99.90
16392;DHT22;8305;-33.882;151.134;2022-07-10T03:43:57;14.40;99.90
16392;DHT22;8305;-33.882;151.134;2022-07-10T03:46:28;14.50;99.90
16392;DHT22;8305;-33.882;151.134;2022-07-10T03:48:59;14.60;99.90
16392;DHT22;8305;-33.882;151.134;2022-07-10T03:51:29;14.60;99.90
16392;DHT22;8305;-33.882;151.134;2022-07-10T03:54:03;14.60;99.90
16392;DHT22;8305;-33.882;151.134;2022-07-10T03:56:33;14.60;99.90
16392;DHT22;8305;-33.882;151.134;2022-07-10T03:59:20;14.50;99.90
16392;DHT22;8305;-33.882;151.134;2022-07-10T04:01:50;14.40;99.90
16392;DHT22;8305;-33.882;151.134;2022-07-10T04:04:21;14.30;99.90
16392;DHT22;8305;-33.882;151.134;2022-07-10T04:06:52;14.10;99.90
16392;DHT22;8305;-33.882;151.134;2022-07-10T04:09:24;13.80;99.90
16392;DHT22;8305;-33.882;151.134;2022-07-10T04:11:55;13.70;99.90
16392;DHT22;8305;-33.882;151.134;2022-07-10T04:14:26;13.70;99.90
16392;DHT22;8305;-33.882;151.134;2022-07-10T04:16:56;13.60;99.90
16392;DHT22;8305;-33.882;151.134;2022-07-10T04:19:27;13.50;99.90
16392;DHT22;8305;-33.882;151.134;2022-07-10T04:21:58;13.50;99.90
16392;DHT22;8305;-33.882;151.134;2022-07-10T04:24:31;13.50;99.90
16392;DHT22;8305;-33.882;151.134;2022-07-10T04:27:01;13.60;99.90
16392;DHT22;8305;-33.882;151.134;2022-07-10T04:29:32;13.60;99.90
16392;DHT22;8305;-33.882;151.134;2022-07-10T04:32:03;13.70;99.90
16392;DHT22;8305;-33.882;151.134;2022-07-10T04:34:33;13.70;99.90
16392;DHT22;8305;-33.882;151.134;2022-07-10T04:37:04;13.70;99.90
16392;DHT22;8305;-33.882;151.134;2022-07-10T04:39:38;13.70;99.90
16392;DHT22;8305;-33.882;151.134;2022-07-10T04:42:09;13.50;99.90
16392;DHT22;8305;-33.882;151.134;2022-07-10T04:44:40;13.40;99.90
16392;DHT22;8305;-33.882;151.134;2022-07-10T04:47:11;13.20;99.90
16392;DHT22;8305;-33.882;151.134;2022-07-10T04:49:41;13.00;99.90
16392;DHT22;8305;-33.882;151.134;2022-07-10T04:52:12;12.90;99.90
16392;DHT22;8305;-33.882;151.134;2022-07-10T04:54:45;12.80;99.90
16392;DHT22;8305;-33.882;151.134;2022-07-10T04:57:15;12.80;99.90
16392;DHT22;8305;-33.882;151.134;2022-07-10T04:59:46;12.70;99.90
16392;DHT22;8305;-33.882;151.134;2022-07-10T05:02:17;12.70;99.90
16392;DHT22;8305;-33.882;151.134;2022-07-10T05:04:47;12.70;99.90
16392;DHT22;8305;-33.882;151.134;2022-07-10T05:07:18;12.70;99.90
16392;DHT22;8305;-33.882;151.134;2022-07-10T05:09:50;12.70;99.90
16392;DHT22;8305;-33.882;151.134;2022-07-10T05:12:21;12.80;99.90
16392;DHT22;8305;-33.882;151.134;2022-07-10T05:14:52;12.80;99.90
16392;DHT22;8305;-33.882;151.134;2022-07-10T05:17:23;12.90;99.90
16392;DHT22;8305;-33.882;151.134;2022-07-10T05:19:54;13.00;99.90
16392;DHT22;8305;-33.882;151.134;2022-07-10T05:22:25;13.00;99.90
16392;DHT22;8305;-33.882;151.134;2022-07-10T05:24:59;13.10;99.90
16392;DHT22;8305;-33.882;151.134;2022-07-10T05:27:30;13.10;99.90
16392;DHT22;8305;-33.882;151.134;2022-07-10T05:30:01;13.20;99.90
16392;DHT22;8305;-33.882;151.134;2022-07-10T05:32:31;13.10;99.90
16392;DHT22;8305;-33.882;151.134;2022-07-10T05:35:02;13.10;99.90
16392;DHT22;8305;-33.882;151.134;2022-07-10T05:37:33;13.10;99.90
16392;DHT22;8305;-33.882;151.134;2022-07-10T05:40:06;13.10;99.90
16392;DHT22;8305;-33.882;151.134;2022-07-10T05:42:37;13.00;99.90
16392;DHT22;8305;-33.882;151.134;2022-07-10T05:45:08;13.00;99.90
16392;DHT22;8305;-33.882;151.134;2022-07-10T05:47:39;13.00;99.90
16392;DHT22;8305;-33.882;151.134;2022-07-10T05:50:10;13.00;99.90
16392;DHT22;8305;-33.882;151.134;2022-07-10T05:52:41;13.00;99.90
16392;DHT22;8305;-33.882;151.134;2022-07-10T05:55:14;13.00;99.90
16392;DHT22;8305;-33.882;151.134;2022-07-10T05:57:44;13.00;99.90
16392;DHT22;8305;-33.882;151.134;2022-07-10T06:00:15;13.00;99.90
16392;DHT22;8305;-33.882;151.134;2022-07-10T06:02:46;13.00;99.90
16392;DHT22;8305;-33.882;151.134;2022-07-10T06:05:17;13.10;99.90
16392;DHT22;8305;-33.882;151.134;2022-07-10T06:07:47;13.20;99.90
16392;DHT22;8305;-33.882;151.134;2022-07-10T06:10:20;13.10;99.90
16392;DHT22;8305;-33.882;151.134;2022-07-10T06:12:50;13.00;99.90
16392;DHT22;8305;-33.882;151.134;2022-07-10T06:15:21;13.00;99.90
16392;DHT22;8305;-33.882;151.134;2022-07-10T06:17:52;12.90;99.90
16392;DHT22;8305;-33.882;151.134;2022-07-10T06:20:26;12.90;99.90
16392;DHT22;8305;-33.882;151.134;2022-07-10T06:22:57;12.80;99.90
16392;DHT22;8305;-33.882;151.134;2022-07-10T06:25:30;12.80;99.90
16392;DHT22;8305;-33.882;151.134;2022-07-10T06:28:01;12.80;99.90
16392;DHT22;8305;-33.882;151.134;2022-07-10T06:30:31;12.70;99.90
16392;DHT22;8305;-33.882;151.134;2022-07-10T06:33:02;12.70;99.90
16392;DHT22;8305;-33.882;151.134;2022-07-10T06:35:33;12.70;99.90
16392;DHT22;8305;-33.882;151.134;2022-07-10T06:38:04;12.60;99.90
16392;DHT22;8305;-33.882;151.134;2022-07-10T06:40:38;12.60;99.90
16392;DHT22;8305;-33.882;151.134;2022-07-10T06:43:09;12.60;99.90
16392;DHT22;8305;-33.882;151.134;2022-07-10T06:45:40;12.60;99.90
16392;DHT22;8305;-33.882;151.134;2022-07-10T06:48:11;12.60;99.90
16392;DHT22;8305;-33.882;151.134;2022-07-10T06:50:40;12.60;99.90
16392;DHT22;8305;-33.882;151.134;2022-07-10T06:53:11;12.60;99.90
16392;DHT22;8305;-33.882;151.134;2022-07-10T06:55:44;12.50;99.90
16392;DHT22;8305;-33.882;151.134;2022-07-10T06:58:15;12.50;99.90
16392;DHT22;8305;-33.882;151.134;2022-07-10T07:00:46;12.50;99.90
16392;DHT22;8305;-33.882;151.134;2022-07-10T07:03:17;12.60;99.90
16392;DHT22;8305;-33.882;151.134;2022-07-10T07:05:47;12.60;99.90
16392;DHT22;8305;-33.882;151.134;2022-07-10T07:08:18;12.60;99.90
16392;DHT22;8305;-33.882;151.134;2022-07-10T07:10:51;12.60;99.90
16392;DHT22;8305;-33.882;151.134;2022-07-10T07:13:21;12.50;99.90
16392;DHT22;8305;-33.882;151.134;2022-07-10T07:15:52;12.50;99.90
16392;DHT22;8305;-33.882;151.134;2022-07-10T07:18:27;12.50;99.90
16392;DHT22;8305;-33.882;151.134;2022-07-10T07:21:03;12.50;99.90
16392;DHT22;8305;-33.882;151.134;2022-07-10T07:23:49;12.50;99.90
16392;DHT22;8305;-33.882;151.134;2022-07-10T07:26:22;12.50;99.90
16392;DHT22;8305;-33.882;151.134;2022-07-10T07:28:52;12.50;99.90
16392;DHT22;8305;-33.882;151.134;2022-07-10T07:31:23;12.50;99.90
16392;DHT22;8305;-33.882;151.134;2022-07-10T07:33:54;12.40;99.90
16392;DHT22;8305;-33.882;151.134;2022-07-10T07:36:24;12.40;99.90
16392;DHT22;8305;-33.882;151.134;2022-07-10T07:38:55;12.40;99.90
16392;DHT22;8305;-33.882;151.134;2022-07-10T07:41:30;12.40;99.90
16392;DHT22;8305;-33.882;151.134;2022-07-10T07:44:01;12.40;99.90
16392;DHT22;8305;-33.882;151.134;2022-07-10T07:46:32;12.30;99.90
16392;DHT22;8305;-33.882;151.134;2022-07-10T07:49:03;12.40;99.90
16392;DHT22;8305;-33.882;151.134;2022-07-10T07:51:33;12.40;99.90
16392;DHT22;8305;-33.882;151.134;2022-07-10T07:54:04;12.40;99.90
16392;DHT22;8305;-33.882;151.134;2022-07-10T07:56:37;12.30;99.90
16392;DHT22;8305;-33.882;151.134;2022-07-10T07:59:08;12.20;99.90
16392;DHT22;8305;-33.882;151.134;2022-07-10T08:01:38;12.30;99.90
16392;DHT22;8305;-33.882;151.134;2022-07-10T08:04:09;12.20;99.90
16392;DHT22;8305;-33.882;151.134;2022-07-10T08:06:39;12.20;99.90
16392;DHT22;8305;-33.882;151.134;2022-07-10T08:09:10;12.20;99.90
16392;DHT22;8305;-33.882;151.134;2022-07-10T08:11:43;12.20;99.90
16392;DHT22;8305;-33.882;151.134;2022-07-10T08:14:13;12.10;99.90
16392;DHT22;8305;-33.882;151.134;2022-07-10T08:16:44;12.10;99.90
16392;DHT22;8305;-33.882;151.134;2022-07-10T08:19:15;12.10;99.90
16392;DHT22;8305;-33.882;151.134;2022-07-10T08:21:45;12.00;99.90
16392;DHT22;8305;-33.882;151.134;2022-07-10T08:24:16;12.00;99.90
16392;DHT22;8305;-33.882;151.134;2022-07-10T08:26:49;12.00;99.90
16392;DHT22;8305;-33.882;151.134;2022-07-10T08:29:19;11.90;99.90
16392;DHT22;8305;-33.882;151.134;2022-07-10T08:31:50;12.00;99.90
16392;DHT22;8305;-33.882;151.134;2022-07-10T08:34:21;12.00;99.90
16392;DHT22;8305;-33.882;151.134;2022-07-10T08:36:51;11.90;99.90
16392;DHT22;8305;-33.882;151.134;2022-07-10T08:39:22;12.00;99.90
16392;DHT22;8305;-33.882;151.134;2022-07-10T08:41:56;11.90;99.90
16392;DHT22;8305;-33.882;151.134;2022-07-10T08:44:28;11.90;99.90
16392;DHT22;8305;-33.882;151.134;2022-07-10T08:46:58;11.90;99.90
16392;DHT22;8305;-33.882;151.134;2022-07-10T08:49:29;11.90;99.90
16392;DHT22;8305;-33.882;151.134;2022-07-10T08:52:05;11.90;99.90
16392;DHT22;8305;-33.882;151.134;2022-07-10T08:54:36;11.90;99.90
16392;DHT22;8305;-33.882;151.134;2022-07-10T08:57:10;11.90;99.90
16392;DHT22;8305;-33.882;151.134;2022-07-10T08:59:41;12.00;99.90
16392;DHT22;8305;-33.882;151.134;2022-07-10T09:02:12;11.90;99.90
16392;DHT22;8305;-33.882;151.134;2022-07-10T09:04:43;11.90;99.90
16392;DHT22;8305;-33.882;151.134;2022-07-10T09:07:14;11.90;99.90
16392;DHT22;8305;-33.882;151.134;2022-07-10T09:09:54;11.90;99.90
16392;DHT22;8305;-33.882;151.134;2022-07-10T09:12:27;11.90;99.90
16392;DHT22;8305;-33.882;151.134;2022-07-10T09:15:16;11.90;99.90
16392;DHT22;8305;-33.882;151.134;2022-07-10T09:17:54;11.90;99.90
16392;DHT22;8305;-33.882;151.134;2022-07-10T09:20:30;11.90;99.90
16392;DHT22;8305;-33.882;151.134;2022-07-10T09:23:14;11.90;99.90
16392;DHT22;8305;-33.882;151.134;2022-07-10T09:25:46;11.90;99.90
16392;DHT22;8305;-33.882;151.134;2022-07-10T09:28:21;12.00;99.90
16392;DHT22;8305;-33.882;151.134;2022-07-10T09:30:53;12.00;99.90
16392;DHT22;8305;-33.882;151.134;2022-07-10T09:33:24;12.00;99.90
16392;DHT22;8305;-33.882;151.134;2022-07-10T09:36:06;12.00;99.90
16392;DHT22;8305;-33.882;151.134;2022-07-10T09:38:51;12.10;99.90
16392;DHT22;8305;-33.882;151.134;2022-07-10T09:41:26;12.10;99.90
16392;DHT22;8305;-33.882;151.134;2022-07-10T09:43:59;12.10;99.90
16392;DHT22;8305;-33.882;151.134;2022-07-10T09:46:34;12.10;99.90
16392;DHT22;8305;-33.882;151.134;2022-07-10T09:49:10;12.10;99.90
16392;DHT22;8305;-33.882;151.134;2022-07-10T09:51:42;12.10;99.90
16392;DHT22;8305;-33.882;151.134;2022-07-10T09:54:13;12.10;99.90
16392;DHT22;8305;-33.882;151.134;2022-07-10T09:56:45;12.10;99.90
16392;DHT22;8305;-33.882;151.134;2022-07-10T09:59:18;12.10;99.90
16392;DHT22;8305;-33.882;151.134;2022-07-10T10:01:49;12.10;99.90
16392;DHT22;8305;-33.882;151.134;2022-07-10T10:04:22;12.10;99.90
16392;DHT22;8305;-33.882;151.134;2022-07-10T10:06:55;12.10;99.90
16392;DHT22;8305;-33.882;151.134;2022-07-10T10:09:31;12.10;99.90
16392;DHT22;8305;-33.882;151.134;2022-07-10T10:12:10;12.10;99.90
16392;DHT22;8305;-33.882;151.134;2022-07-10T10:14:45;12.10;99.90
16392;DHT22;8305;-33.882;151.134;2022-07-10T10:17:17;12.00;99.90
16392;DHT22;8305;-33.882;151.134;2022-07-10T10:19:50;12.10;99.90
16392;DHT22;8305;-33.882;151.134;2022-07-10T10:22:41;12.10;99.90
16392;DHT22;8305;-33.882;151.134;2022-07-10T10:25:12;12.10;99.90
16392;DHT22;8305;-33.882;151.134;2022-07-10T10:27:45;12.00;99.90
16392;DHT22;8305;-33.882;151.134;2022-07-10T10:30:19;12.00;99.90
16392;DHT22;8305;-33.882;151.134;2022-07-10T10:32:50;12.00;99.90
16392;DHT22;8305;-33.882;151.134;2022-07-10T10:35:43;12.00;99.90
16392;DHT22;8305;-33.882;151.134;2022-07-10T10:38:15;12.00;99.90
16392;DHT22;8305;-33.882;151.134;2022-07-10T10:40:45;12.00;99.90
16392;DHT22;8305;-33.882;151.134;2022-07-10T10:43:20;12.00;99.90
16392;DHT22;8305;-33.882;151.134;2022-07-10T10:45:52;12.00;99.90
16392;DHT22;8305;-33.882;151.134;2022-07-10T10:48:23;12.00;99.90
16392;DHT22;8305;-33.882;151.134;2022-07-10T10:50:54;11.90;99.90
16392;DHT22;8305;-33.882;151.134;2022-07-10T10:53:26;11.90;99.90
16392;DHT22;8305;-33.882;151.134;2022-07-10T10:56:22;11.90;99.90
16392;DHT22;8305;-33.882;151.134;2022-07-10T10:58:53;11.90;99.90
16392;DHT22;8305;-33.882;151.134;2022-07-10T11:01:30;11.90;99.90
16392;DHT22;8305;-33.882;151.134;2022-07-10T11:04:17;11.90;99.90
16392;DHT22;8305;-33.882;151.134;2022-07-10T11:06:49;11.90;99.90
16392;DHT22;8305;-33.882;151.134;2022-07-10T11:09:27;11.90;99.90
16392;DHT22;8305;-33.882;151.134;2022-07-10T11:12:08;11.80;99.90
16392;DHT22;8305;-33.882;151.134;2022-07-10T11:14:45;11.70;99.90
16392;DHT22;8305;-33.882;151.134;2022-07-10T11:17:18;11.80;99.90
16392;DHT22;8305;-33.882;151.134;2022-07-10T11:19:55;11.70;99.90
16392;DHT22;8305;-33.882;151.134;2022-07-10T11:22:46;11.70;99.90
16392;DHT22;8305;-33.882;151.134;2022-07-10T11:25:41;11.60;99.90
16392;DHT22;8305;-33.882;151.134;2022-07-10T11:28:13;11.60;99.90
16392;DHT22;8305;-33.882;151.134;2022-07-10T11:30:48;11.50;99.90
16392;DHT22;8305;-33.882;151.134;2022-07-10T11:33:21;11.50;99.90
16392;DHT22;8305;-33.882;151.134;2022-07-10T11:35:53;11.40;99.90
16392;DHT22;8305;-33.882;151.134;2022-07-10T11:38:25;11.40;99.90
16392;DHT22;8305;-33.882;151.134;2022-07-10T11:40:56;11.40;99.90
16392;DHT22;8305;-33.882;151.134;2022-07-10T11:43:26;11.50;99.90
16392;DHT22;8305;-33.882;151.134;2022-07-10T11:45:58;11.40;99.90
16392;DHT22;8305;-33.882;151.134;2022-07-10T11:48:39;11.40;99.90
16392;DHT22;8305;-33.882;151.134;2022-07-10T11:51:23;11.40;99.90
16392;DHT22;8305;-33.882;151.134;2022-07-10T11:53:58;11.40;99.90
16392;DHT22;8305;-33.882;151.134;2022-07-10T11:56:31;11.40;99.90
16392;DHT22;8305;-33.882;151.134;2022-07-10T11:59:03;11.40;99.90
16392;DHT22;8305;-33.882;151.134;2022-07-10T12:01:34;11.30;99.90
16392;DHT22;8305;-33.882;151.134;2022-07-10T12:04:08;11.40;99.90
16392;DHT22;8305;-33.882;151.134;2022-07-10T12:06:40;11.30;99.90
16392;DHT22;8305;-33.882;151.134;2022-07-10T12:09:15;11.30;99.90
16392;DHT22;8305;-33.882;151.134;2022-07-10T12:11:58;11.30;99.90
16392;DHT22;8305;-33.882;151.134;2022-07-10T12:14:30;11.30;99.90
16392;DHT22;8305;-33.882;151.134;2022-07-10T12:17:01;11.20;99.90
16392;DHT22;8305;-33.882;151.134;2022-07-10T12:19:38;11.20;99.90
16392;DHT22;8305;-33.882;151.134;2022-07-10T12:22:09;11.20;99.90
16392;DHT22;8305;-33.882;151.134;2022-07-10T12:24:43;11.20;99.90
16392;DHT22;8305;-33.882;151.134;2022-07-10T12:27:43;11.30;99.90
16392;DHT22;8305;-33.882;151.134;2022-07-10T12:30:13;11.30;99.90
16392;DHT22;8305;-33.882;151.134;2022-07-10T12:32:44;11.40;99.90
16392;DHT22;8305;-33.882;151.134;2022-07-10T12:35:17;11.20;99.90
16392;DHT22;8305;-33.882;151.134;2022-07-10T12:37:49;11.20;99.90
16392;DHT22;8305;-33.882;151.134;2022-07-10T12:40:32;11.30;99.90
16392;DHT22;8305;-33.882;151.134;2022-07-10T12:43:05;11.20;99.90
16392;DHT22;8305;-33.882;151.134;2022-07-10T12:45:38;11.20;99.90
16392;DHT22;8305;-33.882;151.134;2022-07-10T12:48:22;11.30;99.90
16392;DHT22;8305;-33.882;151.134;2022-07-10T12:50:54;11.20;99.90
16392;DHT22;8305;-33.882;151.134;2022-07-10T12:53:25;11.30;99.90
16392;DHT22;8305;-33.882;151.134;2022-07-10T12:55:56;11.20;99.90
16392;DHT22;8305;-33.882;151.134;2022-07-10T12:58:27;11.30;99.90
16392;DHT22;8305;-33.882;151.134;2022-07-10T13:00:58;11.30;99.90
16392;DHT22;8305;-33.882;151.134;2022-07-10T13:03:29;11.30;99.90
16392;DHT22;8305;-33.882;151.134;2022-07-10T13:06:02;11.20;99.90
16392;DHT22;8305;-33.882;151.134;2022-07-10T13:08:45;11.20;99.90
16392;DHT22;8305;-33.882;151.134;2022-07-10T13:11:16;11.20;99.90
16392;DHT22;8305;-33.882;151.134;2022-07-10T13:13:46;11.10;99.90
16392;DHT22;8305;-33.882;151.134;2022-07-10T13:16:18;11.10;99.90
16392;DHT22;8305;-33.882;151.134;2022-07-10T13:18:48;11.10;99.90
16392;DHT22;8305;-33.882;151.134;2022-07-10T13:21:21;11.10;99.90
16392;DHT22;8305;-33.882;151.134;2022-07-10T13:23:52;11.10;99.90
16392;DHT22;8305;-33.882;151.134;2022-07-10T13:26:23;11.10;99.90
16392;DHT22;8305;-33.882;151.134;2022-07-10T13:28:53;11.10;99.90
16392;DHT22;8305;-33.882;151.134;2022-07-10T13:31:24;11.00;99.90
16392;DHT22;8305;-33.882;151.134;2022-07-10T13:33:55;11.10;99.90
16392;DHT22;8305;-33.882;151.134;2022-07-10T13:36:28;11.10;99.90
16392;DHT22;8305;-33.882;151.134;2022-07-10T13:38:59;11.10;99.90
16392;DHT22;8305;-33.882;151.134;2022-07-10T13:41:30;11.10;99.90
16392;DHT22;8305;-33.882;151.134;2022-07-10T13:44:00;11.10;99.90
16392;DHT22;8305;-33.882;151.134;2022-07-10T13:46:31;11.10;99.90
16392;DHT22;8305;-33.882;151.134;2022-07-10T13:49:03;11.00;99.90
16392;DHT22;8305;-33.882;151.134;2022-07-10T13:51:35;11.00;99.90
16392;DHT22;8305;-33.882;151.134;2022-07-10T13:54:06;11.00;99.90
16392;DHT22;8305;-33.882;151.134;2022-07-10T13:56:36;11.00;99.90
16392;DHT22;8305;-33.882;151.134;2022-07-10T13:59:07;11.10;99.90
16392;DHT22;8305;-33.882;151.134;2022-07-10T14:01:38;11.10;99.90
16392;DHT22;8305;-33.882;151.134;2022-07-10T14:04:11;11.10;99.90
16392;DHT22;8305;-33.882;151.134;2022-07-10T14:06:43;11.10;99.90
16392;DHT22;8305;-33.882;151.134;2022-07-10T14:09:14;11.10;99.90
16392;DHT22;8305;-33.882;151.134;2022-07-10T14:11:46;11.10;99.90
16392;DHT22;8305;-33.882;151.134;2022-07-10T14:14:16;11.10;99.90
16392;DHT22;8305;-33.882;151.134;2022-07-10T14:16:47;11.00;99.90
16392;DHT22;8305;-33.882;151.134;2022-07-10T14:19:19;11.00;99.90
16392;DHT22;8305;-33.882;151.134;2022-07-10T14:21:53;11.10;99.90
16392;DHT22;8305;-33.882;151.134;2022-07-10T14:24:24;11.00;99.90
16392;DHT22;8305;-33.882;151.134;2022-07-10T14:26:54;11.00;99.90
16392;DHT22;8305;-33.882;151.134;2022-07-10T14:29:25;11.10;99.90
16392;DHT22;8305;-33.882;151.134;2022-07-10T14:31:56;11.10;99.90
16392;DHT22;8305;-33.882;151.134;2022-07-10T14:34:26;11.10;99.90
16392;DHT22;8305;-33.882;151.134;2022-07-10T14:36:59;11.10;99.90
16392;DHT22;8305;-33.882;151.134;2022-07-10T14:39:32;11.10;99.90
16392;DHT22;8305;-33.882;151.134;2022-07-10T14:42:04;11.10;99.90
16392;DHT22;8305;-33.882;151.134;2022-07-10T14:44:34;11.10;99.90
16392;DHT22;8305;-33.882;151.134;2022-07-10T14:47:05;11.10;99.90
16392;DHT22;8305;-33.882;151.134;2022-07-10T14:49:36;11.20;99.90
16392;DHT22;8305;-33.882;151.134;2022-07-10T14:52:09;11.20;99.90
16392;DHT22;8305;-33.882;151.134;2022-07-10T14:54:41;11.10;99.90
16392;DHT22;8305;-33.882;151.134;2022-07-10T14:57:12;11.20;99.90
16392;DHT22;8305;-33.882;151.134;2022-07-10T14:59:43;11.20;99.90
16392;DHT22;8305;-33.882;151.134;2022-07-10T15:02:13;11.20;99.90
16392;DHT22;8305;-33.882;151.134;2022-07-10T15:04:44;11.20;99.90
16392;DHT22;8305;-33.882;151.134;2022-07-10T15:07:16;11.20;99.90
16392;DHT22;8305;-33.882;151.134;2022-07-10T15:09:48;11.30;99.90
16392;DHT22;8305;-33.882;151.134;2022-07-10T15:12:20;11.30;99.90
16392;DHT22;8305;-33.882;151.134;2022-07-10T15:14:53;11.30;99.90
16392;DHT22;8305;-33.882;151.134;2022-07-10T15:17:25;11.30;99.90
16392;DHT22;8305;-33.882;151.134;2022-07-10T15:19:56;11.30;99.90
16392;DHT22;8305;-33.882;151.134;2022-07-10T15:22:31;11.30;99.90
16392;DHT22;8305;-33.882;151.134;2022-07-10T15:25:03;11.20;99.90
16392;DHT22;8305;-33.882;151.134;2022-07-10T15:27:34;11.20;99.90
16392;DHT22;8305;-33.882;151.134;2022-07-10T15:30:05;11.30;99.90
16392;DHT22;8305;-33.882;151.134;2022-07-10T15:32:36;11.20;99.90
16392;DHT22;8305;-33.882;151.134;2022-07-10T15:35:08;11.20;99.90